sensor_id;sensor_type;location;lat;lon;timestamp;P1;durP1;ratioP1;P2;durP2;ratioP2
10667;SDS011;5382;42.136;24.796;2024-01-06T00:01:04;34.63;;;21.45;;
10667;SDS011;5382;42.136;24.796;2024-01-06T00:03:30;35.70;;;21.75;;
10667;SDS011;5382;42.136;24.796;2024-01-06T00:05:57;31.92;;;21.63;;
10667;SDS011;5382;42.136;24.796;2024-01-06T00:08:25;37.15;;;21.88;;
10667;SDS011;5382;42.136;24.796;2024-01-06T00:10:52;34.90;;;22.98;;
10667;SDS011;5382;42.136;24.796;2024-01-06T00:13:20;31.92;;;20.35;;
10667;SDS011;5382;42.136;24.796;2024-01-06T00:15:47;36.30;;;19.83;;
10667;SDS011;5382;42.136;24.796;2024-01-06T00:18:17;31.20;;;20.52;;
10667;SDS011;5382;42.136;24.796;2024-01-06T00:20:44;31.92;;;18.92;;
10667;SDS011;5382;42.136;24.796;2024-01-06T00:23:11;31.08;;;18.83;;
10667;SDS011;5382;42.136;24.796;2024-01-06T00:25:38;32.60;;;21.33;;
10667;SDS011;5382;42.136;24.796;2024-01-06T00:28:05;34.53;;;21.20;;
10667;SDS011;5382;42.136;24.796;2024-01-06T00:30:32;33.83;;;19.40;;
10667;SDS011;5382;42.136;24.796;2024-01-06T00:32:59;34.08;;;21.00;;
10667;SDS011;5382;42.136;24.796;2024-01-06T00:35:27;26.48;;;20.63;;
10667;SDS011;5382;42.136;24.796;2024-01-06T00:37:54;34.90;;;21.25;;
10667;SDS011;5382;42.136;24.796;2024-01-06T00:40:21;37.78;;;25.52;;
10667;SDS011;5382;42.136;24.796;2024-01-06T00:42:48;38.55;;;26.17;;
10667;SDS011;5382;42.136;24.796;2024-01-06T00:45:15;38.67;;;25.23;;
10667;SDS011;5382;42.136;24.796;2024-01-06T00:47:43;48.00;;;22.52;;
10667;SDS011;5382;42.136;24.796;2024-01-06T00:50:10;41.85;;;26.45;;
10667;SDS011;5382;42.136;24.796;2024-01-06T00:52:39;43.60;;;26.77;;
10667;SDS011;5382;42.136;24.796;2024-01-06T00:55:06;40.15;;;26.15;;
10667;SDS011;5382;42.136;24.796;2024-01-06T00:57:34;46.80;;;29.38;;
10667;SDS011;5382;42.136;24.796;2024-01-06T01:00:02;42.78;;;25.33;;
10667;SDS011;5382;42.136;24.796;2024-01-06T01:02:29;37.10;;;22.42;;
10667;SDS011;5382;42.136;24.796;2024-01-06T01:04:56;37.47;;;24.02;;
10667;SDS011;5382;42.136;24.796;2024-01-06T01:07:23;36.78;;;24.98;;
10667;SDS011;5382;42.136;24.796;2024-01-06T01:09:53;41.70;;;23.67;;
10667;SDS011;5382;42.136;24.796;2024-01-06T01:12:21;40.45;;;25.77;;
10667;SDS011;5382;42.136;24.796;2024-01-06T01:14:48;39.05;;;24.17;;
10667;SDS011;5382;42.136;24.796;2024-01-06T01:17:16;42.33;;;23.38;;
10667;SDS011;5382;42.136;24.796;2024-01-06T01:19:42;37.33;;;22.75;;
10667;SDS011;5382;42.136;24.796;2024-01-06T01:22:09;35.05;;;23.45;;
10667;SDS011;5382;42.136;24.796;2024-01-06T01:24:36;34.85;;;23.55;;
10667;SDS011;5382;42.136;24.796;2024-01-06T01:27:05;39.58;;;22.23;;
10667;SDS011;5382;42.136;24.796;2024-01-06T01:29:32;37.42;;;23.90;;
10667;SDS011;5382;42.136;24.796;2024-01-06T01:31:59;39.38;;;23.92;;
10667;SDS011;5382;42.136;24.796;2024-01-06T01:34:26;34.97;;;22.48;;
10667;SDS011;5382;42.136;24.796;2024-01-06T01:36:53;35.85;;;23.55;;
10667;SDS011;5382;42.136;24.796;2024-01-06T01:39:19;36.17;;;22.15;;
10667;SDS011;5382;42.136;24.796;2024-01-06T01:41:46;41.88;;;23.17;;
10667;SDS011;5382;42.136;24.796;2024-01-06T01:44:15;34.92;;;22.23;;
10667;SDS011;5382;42.136;24.796;2024-01-06T01:46:42;32.00;;;20.05;;
10667;SDS011;5382;42.136;24.796;2024-01-06T01:49:09;32.78;;;21.70;;
10667;SDS011;5382;42.136;24.796;2024-01-06T01:51:36;34.42;;;21.65;;
10667;SDS011;5382;42.136;24.796;2024-01-06T01:54:04;34.35;;;21.02;;
10667;SDS011;5382;42.136;24.796;2024-01-06T01:56:32;31.60;;;21.17;;
10667;SDS011;5382;42.136;24.796;2024-01-06T01:59:00;30.80;;;21.35;;
10667;SDS011;5382;42.136;24.796;2024-01-06T02:01:32;37.80;;;22.88;;
10667;SDS011;5382;42.136;24.796;2024-01-06T02:04:00;40.45;;;21.63;;
10667;SDS011;5382;42.136;24.796;2024-01-06T02:06:27;34.65;;;21.98;;
10667;SDS011;5382;42.136;24.796;2024-01-06T02:08:54;33.70;;;21.52;;
10667;SDS011;5382;42.136;24.796;2024-01-06T02:11:21;36.85;;;23.25;;
10667;SDS011;5382;42.136;24.796;2024-01-06T02:13:47;32.35;;;23.88;;
10667;SDS011;5382;42.136;24.796;2024-01-06T02:16:14;38.67;;;23.27;;
10667;SDS011;5382;42.136;24.796;2024-01-06T02:18:43;36.10;;;23.85;;
10667;SDS011;5382;42.136;24.796;2024-01-06T02:21:09;41.63;;;25.90;;
10667;SDS011;5382;42.136;24.796;2024-01-06T02:23:38;50.75;;;29.83;;
10667;SDS011;5382;42.136;24.796;2024-01-06T02:26:05;48.58;;;28.80;;
10667;SDS011;5382;42.136;24.796;2024-01-06T02:28:32;40.67;;;27.70;;
10667;SDS011;5382;42.136;24.796;2024-01-06T02:30:59;46.20;;;30.08;;
10667;SDS011;5382;42.136;24.796;2024-01-06T02:33:26;40.53;;;27.55;;
10667;SDS011;5382;42.136;24.796;2024-01-06T02:35:53;45.47;;;26.60;;
10667;SDS011;5382;42.136;24.796;2024-01-06T02:38:20;42.67;;;28.35;;
10667;SDS011;5382;42.136;24.796;2024-01-06T02:40:48;40.38;;;25.95;;
10667;SDS011;5382;42.136;24.796;2024-01-06T02:43:15;42.97;;;25.05;;
10667;SDS011;5382;42.136;24.796;2024-01-06T02:45:42;37.90;;;24.63;;
10667;SDS011;5382;42.136;24.796;2024-01-06T02:48:09;39.60;;;25.27;;
10667;SDS011;5382;42.136;24.796;2024-01-06T02:50:36;34.55;;;21.52;;
10667;SDS011;5382;42.136;24.796;2024-01-06T02:53:03;33.60;;;22.98;;
10667;SDS011;5382;42.136;24.796;2024-01-06T02:55:30;31.65;;;20.70;;
10667;SDS011;5382;42.136;24.796;2024-01-06T02:57:58;37.08;;;22.70;;
10667;SDS011;5382;42.136;24.796;2024-01-06T03:00:25;28.42;;;18.77;;
10667;SDS011;5382;42.136;24.796;2024-01-06T03:02:52;35.13;;;20.30;;
10667;SDS011;5382;42.136;24.796;2024-01-06T03:05:19;28.05;;;19.63;;
10667;SDS011;5382;42.136;24.796;2024-01-06T03:07:46;33.53;;;19.85;;
10667;SDS011;5382;42.136;24.796;2024-01-06T03:10:13;27.95;;;18.95;;
10667;SDS011;5382;42.136;24.796;2024-01-06T03:12:40;30.98;;;18.15;;
10667;SDS011;5382;42.136;24.796;2024-01-06T03:15:09;25.08;;;15.75;;
10667;SDS011;5382;42.136;24.796;2024-01-06T03:17:36;25.05;;;16.05;;
10667;SDS011;5382;42.136;24.796;2024-01-06T03:20:04;25.15;;;15.65;;
10667;SDS011;5382;42.136;24.796;2024-01-06T03:22:32;25.02;;;14.55;;
10667;SDS011;5382;42.136;24.796;2024-01-06T03:24:59;20.88;;;14.70;;
10667;SDS011;5382;42.136;24.796;2024-01-06T03:27:26;23.55;;;16.85;;
10667;SDS011;5382;42.136;24.796;2024-01-06T03:29:53;27.25;;;16.88;;
10667;SDS011;5382;42.136;24.796;2024-01-06T03:32:21;25.90;;;16.25;;
10667;SDS011;5382;42.136;24.796;2024-01-06T03:34:49;29.08;;;19.42;;
10667;SDS011;5382;42.136;24.796;2024-01-06T03:37:16;29.65;;;19.20;;
10667;SDS011;5382;42.136;24.796;2024-01-06T03:39:43;24.15;;;16.80;;
10667;SDS011;5382;42.136;24.796;2024-01-06T03:42:10;26.33;;;18.17;;
10667;SDS011;5382;42.136;24.796;2024-01-06T03:44:37;25.90;;;18.80;;
10667;SDS011;5382;42.136;24.796;2024-01-06T03:47:04;31.98;;;18.75;;
10667;SDS011;5382;42.136;24.796;2024-01-06T03:49:33;30.33;;;17.38;;
10667;SDS011;5382;42.136;24.796;2024-01-06T03:52:00;22.20;;;17.23;;
10667;SDS011;5382;42.136;24.796;2024-01-06T03:54:27;29.48;;;17.88;;
10667;SDS011;5382;42.136;24.796;2024-01-06T03:56:53;24.27;;;16.92;;
10667;SDS011;5382;42.136;24.796;2024-01-06T03:59:20;26.83;;;17.92;;
10667;SDS011;5382;42.136;24.796;2024-01-06T04:01:47;25.52;;;17.23;;
10667;SDS011;5382;42.136;24.796;2024-01-06T04:04:14;22.55;;;16.88;;
10667;SDS011;5382;42.136;24.796;2024-01-06T04:06:43;29.65;;;17.17;;
10667;SDS011;5382;42.136;24.796;2024-01-06T04:09:09;25.70;;;17.15;;
10667;SDS011;5382;42.136;24.796;2024-01-06T04:11:36;28.65;;;19.15;;
10667;SDS011;5382;42.136;24.796;2024-01-06T04:14:03;25.40;;;17.88;;
10667;SDS011;5382;42.136;24.796;2024-01-06T04:16:30;24.63;;;14.57;;
10667;SDS011;5382;42.136;24.796;2024-01-06T04:18:57;25.88;;;15.60;;
10667;SDS011;5382;42.136;24.796;2024-01-06T04:21:24;30.65;;;16.88;;
10667;SDS011;5382;42.136;24.796;2024-01-06T04:23:52;25.80;;;16.67;;
10667;SDS011;5382;42.136;24.796;2024-01-06T04:26:21;31.80;;;18.98;;
10667;SDS011;5382;42.136;24.796;2024-01-06T04:28:48;29.15;;;18.15;;
10667;SDS011;5382;42.136;24.796;2024-01-06T04:31:15;21.83;;;15.05;;
10667;SDS011;5382;42.136;24.796;2024-01-06T04:33:42;23.98;;;16.00;;
10667;SDS011;5382;42.136;24.796;2024-01-06T04:36:09;24.60;;;16.20;;
10667;SDS011;5382;42.136;24.796;2024-01-06T04:38:36;24.42;;;15.57;;
10667;SDS011;5382;42.136;24.796;2024-01-06T04:41:04;25.55;;;16.75;;
10667;SDS011;5382;42.136;24.796;2024-01-06T04:43:31;26.48;;;16.23;;
10667;SDS011;5382;42.136;24.796;2024-01-06T04:45:58;24.00;;;14.70;;
10667;SDS011;5382;42.136;24.796;2024-01-06T04:48:25;20.67;;;12.88;;
10667;SDS011;5382;42.136;24.796;2024-01-06T04:50:52;21.67;;;13.38;;
10667;SDS011;5382;42.136;24.796;2024-01-06T04:53:19;19.52;;;11.95;;
10667;SDS011;5382;42.136;24.796;2024-01-06T04:55:46;18.63;;;11.57;;
10667;SDS011;5382;42.136;24.796;2024-01-06T04:58:14;19.02;;;11.85;;
10667;SDS011;5382;42.136;24.796;2024-01-06T05:00:41;17.23;;;11.20;;
10667;SDS011;5382;42.136;24.796;2024-01-06T05:03:08;15.30;;;10.25;;
10667;SDS011;5382;42.136;24.796;2024-01-06T05:05:35;16.20;;;9.13;;
10667;SDS011;5382;42.136;24.796;2024-01-06T05:08:03;19.92;;;10.60;;
10667;SDS011;5382;42.136;24.796;2024-01-06T05:10:30;15.07;;;9.93;;
10667;SDS011;5382;42.136;24.796;2024-01-06T05:12:57;13.30;;;9.45;;
10667;SDS011;5382;42.136;24.796;2024-01-06T05:15:25;16.92;;;10.38;;
10667;SDS011;5382;42.136;24.796;2024-01-06T05:17:52;16.58;;;9.95;;
10667;SDS011;5382;42.136;24.796;2024-01-06T05:20:20;15.15;;;10.02;;
10667;SDS011;5382;42.136;24.796;2024-01-06T05:22:47;16.23;;;10.07;;
10667;SDS011;5382;42.136;24.796;2024-01-06T05:25:14;17.88;;;9.50;;
10667;SDS011;5382;42.136;24.796;2024-01-06T05:27:41;11.85;;;8.60;;
10667;SDS011;5382;42.136;24.796;2024-01-06T05:30:08;17.60;;;10.57;;
10667;SDS011;5382;42.136;24.796;2024-01-06T05:32:38;18.08;;;12.23;;
10667;SDS011;5382;42.136;24.796;2024-01-06T05:35:05;21.23;;;12.82;;
10667;SDS011;5382;42.136;24.796;2024-01-06T05:37:32;24.70;;;14.10;;
10667;SDS011;5382;42.136;24.796;2024-01-06T05:39:59;30.40;;;14.98;;
10667;SDS011;5382;42.136;24.796;2024-01-06T05:42:29;17.80;;;10.88;;
10667;SDS011;5382;42.136;24.796;2024-01-06T05:44:56;17.17;;;11.48;;
10667;SDS011;5382;42.136;24.796;2024-01-06T05:47:23;20.65;;;12.85;;
10667;SDS011;5382;42.136;24.796;2024-01-06T05:49:51;19.90;;;11.98;;
10667;SDS011;5382;42.136;24.796;2024-01-06T05:52:18;18.15;;;11.35;;
10667;SDS011;5382;42.136;24.796;2024-01-06T05:54:45;22.38;;;13.10;;
10667;SDS011;5382;42.136;24.796;2024-01-06T05:57:12;16.98;;;11.32;;
10667;SDS011;5382;42.136;24.796;2024-01-06T05:59:39;19.30;;;11.23;;
10667;SDS011;5382;42.136;24.796;2024-01-06T06:02:06;18.73;;;12.32;;
10667;SDS011;5382;42.136;24.796;2024-01-06T06:04:33;21.27;;;14.18;;
10667;SDS011;5382;42.136;24.796;2024-01-06T06:07:02;21.85;;;12.98;;
10667;SDS011;5382;42.136;24.796;2024-01-06T06:09:29;21.63;;;13.10;;
10667;SDS011;5382;42.136;24.796;2024-01-06T06:11:56;26.45;;;13.98;;
10667;SDS011;5382;42.136;24.796;2024-01-06T06:14:23;22.27;;;13.02;;
10667;SDS011;5382;42.136;24.796;2024-01-06T06:16:50;23.42;;;13.55;;
10667;SDS011;5382;42.136;24.796;2024-01-06T06:19:17;27.13;;;15.02;;
10667;SDS011;5382;42.136;24.796;2024-01-06T06:21:44;22.55;;;14.50;;
10667;SDS011;5382;42.136;24.796;2024-01-06T06:24:12;21.77;;;14.77;;
10667;SDS011;5382;42.136;24.796;2024-01-06T06:26:39;22.98;;;15.57;;
10667;SDS011;5382;42.136;24.796;2024-01-06T06:29:06;23.98;;;15.90;;
10667;SDS011;5382;42.136;24.796;2024-01-06T06:31:33;24.00;;;14.63;;
10667;SDS011;5382;42.136;24.796;2024-01-06T06:34:00;25.63;;;16.05;;
10667;SDS011;5382;42.136;24.796;2024-01-06T06:36:27;25.05;;;15.30;;
10667;SDS011;5382;42.136;24.796;2024-01-06T06:38:54;24.95;;;14.85;;
10667;SDS011;5382;42.136;24.796;2024-01-06T06:41:24;20.35;;;15.23;;
10667;SDS011;5382;42.136;24.796;2024-01-06T06:43:51;24.40;;;15.63;;
10667;SDS011;5382;42.136;24.796;2024-01-06T06:46:18;21.80;;;15.80;;
10667;SDS011;5382;42.136;24.796;2024-01-06T06:48:45;31.63;;;16.23;;
10667;SDS011;5382;42.136;24.796;2024-01-06T06:51:12;26.95;;;15.93;;
10667;SDS011;5382;42.136;24.796;2024-01-06T06:53:39;23.98;;;14.38;;
10667;SDS011;5382;42.136;24.796;2024-01-06T06:56:06;27.02;;;15.07;;
10667;SDS011;5382;42.136;24.796;2024-01-06T06:58:35;22.05;;;15.05;;
10667;SDS011;5382;42.136;24.796;2024-01-06T07:01:02;21.25;;;14.82;;
10667;SDS011;5382;42.136;24.796;2024-01-06T07:03:30;24.98;;;14.70;;
10667;SDS011;5382;42.136;24.796;2024-01-06T07:05:57;23.50;;;13.88;;
10667;SDS011;5382;42.136;24.796;2024-01-06T07:08:24;27.73;;;15.23;;
10667;SDS011;5382;42.136;24.796;2024-01-06T07:10:51;20.48;;;13.75;;
10667;SDS011;5382;42.136;24.796;2024-01-06T07:13:18;22.08;;;14.30;;
10667;SDS011;5382;42.136;24.796;2024-01-06T07:15:46;22.33;;;15.10;;
10667;SDS011;5382;42.136;24.796;2024-01-06T07:18:13;22.63;;;14.05;;
10667;SDS011;5382;42.136;24.796;2024-01-06T07:20:40;21.17;;;13.75;;
10667;SDS011;5382;42.136;24.796;2024-01-06T07:23:08;22.13;;;13.15;;
10667;SDS011;5382;42.136;24.796;2024-01-06T07:25:34;23.75;;;13.82;;
10667;SDS011;5382;42.136;24.796;2024-01-06T07:28:01;24.30;;;13.98;;
10667;SDS011;5382;42.136;24.796;2024-01-06T07:30:29;24.27;;;14.55;;
10667;SDS011;5382;42.136;24.796;2024-01-06T07:32:57;27.45;;;14.25;;
10667;SDS011;5382;42.136;24.796;2024-01-06T07:35:24;19.45;;;14.00;;
10667;SDS011;5382;42.136;24.796;2024-01-06T07:37:51;25.27;;;13.77;;
10667;SDS011;5382;42.136;24.796;2024-01-06T07:40:18;22.42;;;14.43;;
10667;SDS011;5382;42.136;24.796;2024-01-06T07:42:45;21.90;;;13.63;;
10667;SDS011;5382;42.136;24.796;2024-01-06T07:45:12;24.85;;;14.55;;
10667;SDS011;5382;42.136;24.796;2024-01-06T07:47:39;23.08;;;14.98;;
10667;SDS011;5382;42.136;24.796;2024-01-06T07:50:08;18.98;;;13.77;;
10667;SDS011;5382;42.136;24.796;2024-01-06T07:52:35;28.27;;;14.35;;
10667;SDS011;5382;42.136;24.796;2024-01-06T07:55:03;24.83;;;17.05;;
10667;SDS011;5382;42.136;24.796;2024-01-06T07:57:31;24.25;;;16.63;;
10667;SDS011;5382;42.136;24.796;2024-01-06T07:59:58;23.02;;;14.32;;
10667;SDS011;5382;42.136;24.796;2024-01-06T08:02:26;26.38;;;15.60;;
10667;SDS011;5382;42.136;24.796;2024-01-06T08:04:52;24.67;;;14.77;;
10667;SDS011;5382;42.136;24.796;2024-01-06T08:07:22;22.55;;;15.43;;
10667;SDS011;5382;42.136;24.796;2024-01-06T08:09:49;24.13;;;13.45;;
10667;SDS011;5382;42.136;24.796;2024-01-06T08:12:16;26.35;;;15.90;;
10667;SDS011;5382;42.136;24.796;2024-01-06T08:14:43;25.13;;;16.58;;
10667;SDS011;5382;42.136;24.796;2024-01-06T08:17:10;22.75;;;15.32;;
10667;SDS011;5382;42.136;24.796;2024-01-06T08:19:37;27.08;;;15.98;;
10667;SDS011;5382;42.136;24.796;2024-01-06T08:22:04;24.83;;;16.77;;
10667;SDS011;5382;42.136;24.796;2024-01-06T08:24:32;23.95;;;16.92;;
10667;SDS011;5382;42.136;24.796;2024-01-06T08:26:59;28.02;;;18.88;;
10667;SDS011;5382;42.136;24.796;2024-01-06T08:29:26;30.40;;;19.27;;
10667;SDS011;5382;42.136;24.796;2024-01-06T08:31:53;34.40;;;18.58;;
10667;SDS011;5382;42.136;24.796;2024-01-06T08:34:20;24.67;;;17.65;;
10667;SDS011;5382;42.136;24.796;2024-01-06T08:36:47;30.70;;;18.23;;
10667;SDS011;5382;42.136;24.796;2024-01-06T08:39:14;26.70;;;17.75;;
10667;SDS011;5382;42.136;24.796;2024-01-06T08:41:42;30.25;;;17.98;;
10667;SDS011;5382;42.136;24.796;2024-01-06T08:44:10;31.90;;;17.63;;
10667;SDS011;5382;42.136;24.796;2024-01-06T08:46:37;32.45;;;16.75;;
10667;SDS011;5382;42.136;24.796;2024-01-06T08:49:04;37.55;;;17.73;;
10667;SDS011;5382;42.136;24.796;2024-01-06T08:51:34;26.92;;;17.60;;
10667;SDS011;5382;42.136;24.796;2024-01-06T08:54:01;31.95;;;18.67;;
10667;SDS011;5382;42.136;24.796;2024-01-06T08:56:30;31.63;;;18.02;;
10667;SDS011;5382;42.136;24.796;2024-01-06T08:58:58;32.30;;;19.17;;
10667;SDS011;5382;42.136;24.796;2024-01-06T09:01:25;29.23;;;17.83;;
10667;SDS011;5382;42.136;24.796;2024-01-06T09:03:52;33.35;;;19.35;;
10667;SDS011;5382;42.136;24.796;2024-01-06T09:06:19;27.88;;;17.80;;
10667;SDS011;5382;42.136;24.796;2024-01-06T09:08:46;31.85;;;18.00;;
10667;SDS011;5382;42.136;24.796;2024-01-06T09:11:13;30.05;;;17.50;;
10667;SDS011;5382;42.136;24.796;2024-01-06T09:13:40;27.73;;;18.52;;
10667;SDS011;5382;42.136;24.796;2024-01-06T09:16:08;28.88;;;18.05;;
10667;SDS011;5382;42.136;24.796;2024-01-06T09:18:35;33.03;;;19.45;;
10667;SDS011;5382;42.136;24.796;2024-01-06T09:21:03;26.77;;;17.52;;
10667;SDS011;5382;42.136;24.796;2024-01-06T09:23:30;28.00;;;18.73;;
10667;SDS011;5382;42.136;24.796;2024-01-06T09:25:57;34.47;;;19.02;;
10667;SDS011;5382;42.136;24.796;2024-01-06T09:28:24;31.70;;;19.38;;
10667;SDS011;5382;42.136;24.796;2024-01-06T09:30:51;30.20;;;19.23;;
10667;SDS011;5382;42.136;24.796;2024-01-06T09:33:22;30.17;;;18.48;;
10667;SDS011;5382;42.136;24.796;2024-01-06T09:35:49;32.67;;;18.63;;
10667;SDS011;5382;42.136;24.796;2024-01-06T09:38:16;30.88;;;18.73;;
10667;SDS011;5382;42.136;24.796;2024-01-06T09:40:44;29.52;;;19.25;;
10667;SDS011;5382;42.136;24.796;2024-01-06T09:43:11;30.17;;;18.02;;
10667;SDS011;5382;42.136;24.796;2024-01-06T09:45:38;24.23;;;17.23;;
10667;SDS011;5382;42.136;24.796;2024-01-06T09:48:08;27.75;;;17.83;;
10667;SDS011;5382;42.136;24.796;2024-01-06T09:50:40;27.13;;;16.27;;
10667;SDS011;5382;42.136;24.796;2024-01-06T09:53:10;30.88;;;20.70;;
10667;SDS011;5382;42.136;24.796;2024-01-06T09:55:37;28.45;;;18.45;;
10667;SDS011;5382;42.136;24.796;2024-01-06T09:58:06;25.83;;;16.98;;
10667;SDS011;5382;42.136;24.796;2024-01-06T10:00:35;25.73;;;18.52;;
10667;SDS011;5382;42.136;24.796;2024-01-06T10:03:02;27.13;;;19.70;;
10667;SDS011;5382;42.136;24.796;2024-01-06T10:05:29;27.10;;;18.83;;
10667;SDS011;5382;42.136;24.796;2024-01-06T10:07:58;32.90;;;20.35;;
10667;SDS011;5382;42.136;24.796;2024-01-06T10:10:26;23.35;;;16.00;;
10667;SDS011;5382;42.136;24.796;2024-01-06T10:12:54;24.77;;;14.60;;
10667;SDS011;5382;42.136;24.796;2024-01-06T10:15:21;23.05;;;17.95;;
10667;SDS011;5382;42.136;24.796;2024-01-06T10:17:48;20.42;;;12.50;;
10667;SDS011;5382;42.136;24.796;2024-01-06T10:20:15;21.02;;;14.40;;
10667;SDS011;5382;42.136;24.796;2024-01-06T10:22:45;24.27;;;14.20;;
10667;SDS011;5382;42.136;24.796;2024-01-06T10:25:13;17.52;;;12.13;;
10667;SDS011;5382;42.136;24.796;2024-01-06T10:27:41;18.67;;;13.65;;
10667;SDS011;5382;42.136;24.796;2024-01-06T10:30:08;19.83;;;14.20;;
10667;SDS011;5382;42.136;24.796;2024-01-06T10:32:39;20.67;;;10.75;;
10667;SDS011;5382;42.136;24.796;2024-01-06T10:35:06;20.42;;;14.40;;
10667;SDS011;5382;42.136;24.796;2024-01-06T10:37:34;21.00;;;14.77;;
10667;SDS011;5382;42.136;24.796;2024-01-06T10:40:07;22.05;;;15.00;;
10667;SDS011;5382;42.136;24.796;2024-01-06T10:42:37;23.52;;;12.98;;
10667;SDS011;5382;42.136;24.796;2024-01-06T10:45:06;22.00;;;14.43;;
10667;SDS011;5382;42.136;24.796;2024-01-06T10:47:34;29.77;;;14.50;;
10667;SDS011;5382;42.136;24.796;2024-01-06T10:50:02;23.85;;;14.18;;
10667;SDS011;5382;42.136;24.796;2024-01-06T10:52:29;15.93;;;11.52;;
10667;SDS011;5382;42.136;24.796;2024-01-06T10:54:57;16.23;;;12.05;;
10667;SDS011;5382;42.136;24.796;2024-01-06T10:57:24;19.75;;;12.00;;
10667;SDS011;5382;42.136;24.796;2024-01-06T10:59:54;19.92;;;11.90;;
10667;SDS011;5382;42.136;24.796;2024-01-06T11:02:23;21.35;;;11.80;;
10667;SDS011;5382;42.136;24.796;2024-01-06T11:04:51;16.10;;;12.40;;
10667;SDS011;5382;42.136;24.796;2024-01-06T11:07:19;16.27;;;12.43;;
10667;SDS011;5382;42.136;24.796;2024-01-06T11:09:50;15.80;;;14.07;;
10667;SDS011;5382;42.136;24.796;2024-01-06T11:12:20;15.82;;;11.35;;
10667;SDS011;5382;42.136;24.796;2024-01-06T11:14:47;19.63;;;11.40;;
10667;SDS011;5382;42.136;24.796;2024-01-06T11:20:20;18.45;;;13.85;;
10667;SDS011;5382;42.136;24.796;2024-01-06T11:22:48;21.60;;;12.52;;
10667;SDS011;5382;42.136;24.796;2024-01-06T11:25:16;19.65;;;16.02;;
10667;SDS011;5382;42.136;24.796;2024-01-06T11:27:45;20.95;;;16.05;;
10667;SDS011;5382;42.136;24.796;2024-01-06T11:30:19;20.88;;;16.58;;
10667;SDS011;5382;42.136;24.796;2024-01-06T11:32:47;21.65;;;16.77;;
10667;SDS011;5382;42.136;24.796;2024-01-06T11:35:15;19.58;;;16.38;;
10667;SDS011;5382;42.136;24.796;2024-01-06T11:37:53;19.50;;;16.17;;
10667;SDS011;5382;42.136;24.796;2024-01-06T11:40:25;21.55;;;13.45;;
10667;SDS011;5382;42.136;24.796;2024-01-06T11:42:58;20.02;;;13.18;;
10667;SDS011;5382;42.136;24.796;2024-01-06T11:45:27;21.65;;;16.63;;
10667;SDS011;5382;42.136;24.796;2024-01-06T11:47:54;22.00;;;16.73;;
10667;SDS011;5382;42.136;24.796;2024-01-06T11:50:27;21.98;;;17.73;;
10667;SDS011;5382;42.136;24.796;2024-01-06T11:52:54;25.15;;;18.92;;
10667;SDS011;5382;42.136;24.796;2024-01-06T11:55:20;25.08;;;18.85;;
10667;SDS011;5382;42.136;24.796;2024-01-06T11:57:48;23.65;;;18.90;;
10667;SDS011;5382;42.136;24.796;2024-01-06T12:00:15;21.92;;;18.95;;
10667;SDS011;5382;42.136;24.796;2024-01-06T12:02:43;27.85;;;20.13;;
10667;SDS011;5382;42.136;24.796;2024-01-06T12:05:13;27.08;;;19.80;;
10667;SDS011;5382;42.136;24.796;2024-01-06T12:07:42;26.48;;;19.23;;
10667;SDS011;5382;42.136;24.796;2024-01-06T12:10:10;21.13;;;17.13;;
10667;SDS011;5382;42.136;24.796;2024-01-06T12:12:39;17.80;;;13.73;;
10667;SDS011;5382;42.136;24.796;2024-01-06T12:15:06;21.90;;;14.90;;
10667;SDS011;5382;42.136;24.796;2024-01-06T12:17:35;19.67;;;15.15;;
10667;SDS011;5382;42.136;24.796;2024-01-06T12:20:02;18.40;;;14.75;;
10667;SDS011;5382;42.136;24.796;2024-01-06T12:22:30;19.40;;;14.85;;
10667;SDS011;5382;42.136;24.796;2024-01-06T12:24:59;19.80;;;14.00;;
10667;SDS011;5382;42.136;24.796;2024-01-06T12:27:26;19.98;;;14.57;;
10667;SDS011;5382;42.136;24.796;2024-01-06T12:29:53;21.05;;;14.70;;
10667;SDS011;5382;42.136;24.796;2024-01-06T12:32:21;17.67;;;15.85;;
10667;SDS011;5382;42.136;24.796;2024-01-06T12:34:48;21.33;;;15.35;;
10667;SDS011;5382;42.136;24.796;2024-01-06T12:37:16;21.40;;;15.32;;
10667;SDS011;5382;42.136;24.796;2024-01-06T12:39:43;19.50;;;14.15;;
10667;SDS011;5382;42.136;24.796;2024-01-06T12:42:12;15.60;;;11.07;;
10667;SDS011;5382;42.136;24.796;2024-01-06T12:44:41;12.73;;;10.07;;
10667;SDS011;5382;42.136;24.796;2024-01-06T12:47:08;11.98;;;9.25;;
10667;SDS011;5382;42.136;24.796;2024-01-06T12:49:37;11.35;;;8.98;;
10667;SDS011;5382;42.136;24.796;2024-01-06T12:52:04;13.77;;;8.00;;
10667;SDS011;5382;42.136;24.796;2024-01-06T12:54:31;11.02;;;7.88;;
10667;SDS011;5382;42.136;24.796;2024-01-06T12:56:58;12.35;;;8.23;;
10667;SDS011;5382;42.136;24.796;2024-01-06T12:59:27;9.98;;;7.82;;
10667;SDS011;5382;42.136;24.796;2024-01-06T13:01:55;10.15;;;8.32;;
10667;SDS011;5382;42.136;24.796;2024-01-06T13:04:22;10.82;;;8.90;;
10667;SDS011;5382;42.136;24.796;2024-01-06T13:06:49;11.15;;;8.30;;
10667;SDS011;5382;42.136;24.796;2024-01-06T13:09:17;9.70;;;7.53;;
10667;SDS011;5382;42.136;24.796;2024-01-06T13:11:44;11.90;;;8.05;;
10667;SDS011;5382;42.136;24.796;2024-01-06T13:14:12;9.20;;;7.55;;
10667;SDS011;5382;42.136;24.796;2024-01-06T13:16:41;11.88;;;8.57;;
10667;SDS011;5382;42.136;24.796;2024-01-06T13:19:08;11.38;;;7.38;;
10667;SDS011;5382;42.136;24.796;2024-01-06T13:21:35;8.20;;;7.40;;
10667;SDS011;5382;42.136;24.796;2024-01-06T13:24:04;11.07;;;8.20;;
10667;SDS011;5382;42.136;24.796;2024-01-06T13:26:32;10.77;;;7.80;;
10667;SDS011;5382;42.136;24.796;2024-01-06T13:28:59;10.27;;;7.80;;
10667;SDS011;5382;42.136;24.796;2024-01-06T13:31:27;11.32;;;7.10;;
10667;SDS011;5382;42.136;24.796;2024-01-06T13:33:56;9.45;;;6.78;;
10667;SDS011;5382;42.136;24.796;2024-01-06T13:36:23;9.15;;;7.22;;
10667;SDS011;5382;42.136;24.796;2024-01-06T13:38:50;8.60;;;7.35;;
10667;SDS011;5382;42.136;24.796;2024-01-06T13:41:17;9.32;;;7.10;;
10667;SDS011;5382;42.136;24.796;2024-01-06T13:43:45;7.93;;;7.10;;
10667;SDS011;5382;42.136;24.796;2024-01-06T13:46:12;8.10;;;6.25;;
10667;SDS011;5382;42.136;24.796;2024-01-06T13:48:39;7.07;;;6.03;;
10667;SDS011;5382;42.136;24.796;2024-01-06T13:51:08;9.20;;;6.43;;
10667;SDS011;5382;42.136;24.796;2024-01-06T13:53:36;10.18;;;6.28;;
10667;SDS011;5382;42.136;24.796;2024-01-06T13:56:03;7.43;;;5.85;;
10667;SDS011;5382;42.136;24.796;2024-01-06T13:58:31;7.45;;;5.40;;
10667;SDS011;5382;42.136;24.796;2024-01-06T14:01:00;8.05;;;5.40;;
10667;SDS011;5382;42.136;24.796;2024-01-06T14:03:27;8.45;;;5.90;;
10667;SDS011;5382;42.136;24.796;2024-01-06T14:05:55;9.60;;;5.85;;
10667;SDS011;5382;42.136;24.796;2024-01-06T14:08:23;7.95;;;6.25;;
10667;SDS011;5382;42.136;24.796;2024-01-06T14:10:50;7.07;;;5.10;;
10667;SDS011;5382;42.136;24.796;2024-01-06T14:13:17;7.22;;;6.00;;
10667;SDS011;5382;42.136;24.796;2024-01-06T14:15:44;11.50;;;7.25;;
10667;SDS011;5382;42.136;24.796;2024-01-06T14:18:11;12.05;;;7.32;;
10667;SDS011;5382;42.136;24.796;2024-01-06T14:20:41;14.63;;;9.65;;
10667;SDS011;5382;42.136;24.796;2024-01-06T14:23:08;23.98;;;14.77;;
10667;SDS011;5382;42.136;24.796;2024-01-06T14:25:37;24.48;;;16.00;;
10667;SDS011;5382;42.136;24.796;2024-01-06T14:28:04;22.73;;;12.73;;